Lilly Park, West Virginia
Current Conditions -  °F | °C
As of 1:07 PM on Monday 26 Jan 2015 (Local Time) from KBKW Reporting Station
Light Snow Light Snow  
Wind Chill: 23°   Ceiling: 700
Heat Index: 33°   Visibility: 1.7mi
Dew Point: 30°   Wind: 15mph
Humidity: 89%   Direction: 310°NW
Pressure: 29.64"   Gusts: NA
Location:  37.9714°N, 80.8054°W
Report Text: KBKW 261807Z AUTO 31013KT 1 3/4SM -SN BR OVC007 01/M01 A2964 RMK AO2 SNB1757 P0000 T00061011
Loading
Personal Weather Stations






























Interactive Weather Map New forecast layout! Learn more

10-Day Weather Forecast

Advertisements
Track Severe Weather on mobile